Time;durP1;ratioP1;P1;durP2;ratioP2;P2;SDS_P1;SDS_P2;PMS_P1;PMS_P2;Temp;Humidity;BMP_temperature;BMP_pressure;BME280_temperature;BME280_humidity;BME280_pressure;Samples;Min_cycle;Max_cycle;Signal;HPM_P1;HPM_P2
2024/03/14 00:02:17;;;;;;;15.63;9.13;;;;;;;15.51;68.49;101464.16;4990744;28;20061;-47
2024/03/14 00:04:43;;;;;;;13.65;9.07;;;;;;;15.54;68.27;101458.97;4990827;28;20150;-45
2024/03/14 00:07:08;;;;;;;15.40;8.80;;;;;;;15.50;68.74;101460.66;4991333;28;20157;-46
2024/03/14 00:09:33;;;;;;;14.57;9.40;;;;;;;15.41;68.84;101453.63;4991173;28;20129;-45
2024/03/14 00:11:59;;;;;;;15.77;9.15;;;;;;;15.44;69.52;101455.38;4989872;28;20034;-48
2024/03/14 00:14:24;;;;;;;15.85;9.45;;;;;;;15.34;70.28;101457.13;4984319;23;20182;-80
2024/03/14 00:16:52;;;;;;;17.42;9.95;;;;;;;15.34;70.07;101449.22;4954640;28;20126;-79
2024/03/14 00:19:20;;;;;;;15.88;10.18;;;;;;;15.28;70.89;101449.22;4955892;28;20031;-79
2024/03/14 00:21:48;;;;;;;15.55;10.35;;;;;;;15.27;71.27;101459.72;4957151;28;20039;-80
2024/03/14 00:24:16;;;;;;;15.77;10.07;;;;;;;15.25;71.18;101456.19;4961126;28;20477;-81
2024/03/14 00:26:42;;;;;;;15.55;9.95;;;;;;;15.25;71.82;101449.19;4955219;28;20087;-80
2024/03/14 00:29:07;;;;;;;15.13;10.27;;;;;;;15.24;72.03;101455.34;4961233;28;20035;-80
2024/03/14 00:31:40;;;;;;;16.88;10.38;;;;;;;15.27;71.57;101451.81;4968195;28;20055;-80
2024/03/14 00:34:07;;;;;;;17.02;10.93;;;;;;;15.31;71.38;101453.59;4970865;29;20119;-81
2024/03/14 00:36:37;;;;;;;14.68;9.85;;;;;;;15.30;71.51;101451.84;4967467;28;20122;-81
2024/03/14 00:39:03;;;;;;;15.30;10.18;;;;;;;15.24;72.26;101455.34;4963893;28;20035;-79
2024/03/14 00:41:30;;;;;;;14.82;9.82;;;;;;;15.20;72.69;101450.94;4964458;28;20027;-81
2024/03/14 00:43:55;;;;;;;16.00;9.15;;;;;;;15.31;71.99;101443.97;4963727;28;20039;-79
2024/03/14 00:46:20;;;;;;;14.65;9.75;;;;;;;15.17;72.89;101440.44;4962708;28;20098;-80
2024/03/14 00:48:46;;;;;;;13.65;8.52;;;;;;;15.30;72.28;101438.72;4961656;28;20043;-81
2024/03/14 00:51:12;;;;;;;12.95;9.00;;;;;;;15.30;72.25;101444.84;4960451;28;20065;-81
2024/03/14 00:53:37;;;;;;;14.52;9.00;;;;;;;15.20;72.81;101445.69;4955462;28;20039;-80
2024/03/14 00:56:02;;;;;;;13.15;8.60;;;;;;;15.32;72.39;101442.22;4953877;28;20032;-79
2024/03/14 00:58:28;;;;;;;11.65;8.05;;;;;;;15.30;72.17;101438.72;4954812;28;20077;-81
2024/03/14 01:00:54;;;;;;;14.52;9.02;;;;;;;15.11;73.83;101431.66;4953409;28;20043;-81
2024/03/14 01:03:19;;;;;;;11.52;8.07;;;;;;;15.31;73.03;101437.81;4954643;28;20035;-80
2024/03/14 01:05:44;;;;;;;12.15;7.93;;;;;;;15.29;72.68;101439.59;4954803;28;20103;-81
2024/03/14 01:08:19;;;;;;;12.40;8.05;;;;;;;15.25;73.23;101432.53;4961856;28;20023;-80
2024/03/14 01:10:48;;;;;;;11.70;7.72;;;;;;;15.24;73.19;101434.31;4965532;28;20044;-79
2024/03/14 01:13:13;;;;;;;11.77;8.23;;;;;;;15.13;73.33;101428.13;4961770;29;20070;-80
2024/03/14 01:15:39;;;;;;;13.02;7.80;;;;;;;15.00;73.93;101429.00;4962948;28;20521;-80
2024/03/14 01:18:07;;;;;;;13.90;7.90;;;;;;;14.99;74.13;101429.84;4965284;28;20035;-81
2024/03/14 01:20:32;;;;;;;11.38;6.93;;;;;;;15.23;73.21;101432.56;4964277;28;20044;-80
2024/03/14 01:22:57;;;;;;;12.45;7.90;;;;;;;15.40;72.34;101436.13;4967349;28;20043;-80
2024/03/14 01:25:25;;;;;;;12.18;7.60;;;;;;;14.86;74.68;101434.16;4967219;28;20180;-80
2024/03/14 01:27:55;;;;;;;12.60;7.32;;;;;;;15.40;72.31;101427.34;4965712;28;20038;-81
2024/03/14 01:30:26;;;;;;;10.23;7.38;;;;;;;15.44;71.80;101424.72;4968369;28;20036;-79
2024/03/14 01:32:54;;;;;;;10.82;7.72;;;;;;;15.39;71.88;101422.97;4967378;28;20456;-80
2024/03/14 01:35:20;;;;;;;12.05;7.80;;;;;;;14.95;73.69;101417.56;4967120;28;20099;-81
2024/03/14 01:37:48;;;;;;;12.57;7.90;;;;;;;15.05;73.19;101414.13;4965635;28;20035;-82
2024/03/14 01:40:13;;;;;;;11.77;8.00;;;;;;;15.14;73.35;101408.00;4967383;28;20094;-80
2024/03/14 01:42:46;;;;;;;11.43;7.82;;;;;;;15.26;72.55;101405.41;4967671;28;20108;-80
2024/03/14 01:45:14;;;;;;;12.93;8.50;;;;;;;14.98;73.62;101404.47;4968202;28;20465;-80
2024/03/14 01:47:49;;;;;;;14.60;8.27;;;;;;;14.89;73.87;101407.91;4968926;28;20031;-81
2024/03/14 01:50:15;;;;;;;12.63;7.70;;;;;;;15.09;73.22;101396.63;4972503;28;20047;-82
2024/03/14 01:52:40;;;;;;;13.80;8.98;;;;;;;14.98;73.43;101401.84;4973890;28;20031;-79
2024/03/14 01:55:09;;;;;;;12.23;8.23;;;;;;;15.00;73.86;101395.69;4975445;28;20037;-80
2024/03/14 01:57:35;;;;;;;13.20;8.30;;;;;;;15.07;73.39;101403.59;4973731;29;20047;-81
2024/03/14 02:00:04;;;;;;;13.10;8.73;;;;;;;14.97;72.93;101397.44;4972482;28;20015;-80
2024/03/14 02:02:29;;;;;;;14.82;8.07;;;;;;;15.14;72.44;101392.25;4974072;28;20027;-81
2024/03/14 02:05:15;;;;;;;12.43;8.68;;;;;;;14.77;73.32;101383.34;4974114;28;20051;-80
2024/03/14 02:07:42;;;;;;;10.93;7.75;;;;;;;15.04;72.93;101380.84;4972339;28;20049;-80
2024/03/14 02:10:12;;;;;;;14.77;8.32;;;;;;;14.81;73.85;101383.41;4976241;29;20070;-79
2024/03/14 02:12:38;;;;;;;13.25;8.52;;;;;;;14.93;73.60;101378.19;4973032;28;20023;-81
2024/03/14 02:15:04;;;;;;;15.02;8.60;;;;;;;14.96;73.40;101375.56;4972521;28;20070;-81
2024/03/14 02:17:33;;;;;;;12.73;8.30;;;;;;;15.03;72.78;101369.47;4974090;28;20055;-82
2024/03/14 02:20:16;;;;;;;12.68;8.07;;;;;;;14.91;72.94;101363.28;4973861;28;20125;-82
2024/03/14 02:22:42;;;;;;;12.65;8.30;;;;;;;15.05;72.41;101358.09;4973998;28;20043;-81
2024/03/14 02:25:08;;;;;;;13.50;8.02;;;;;;;14.93;72.70;101351.06;4973132;28;20046;-81
2024/03/14 02:27:36;;;;;;;12.30;8.48;;;;;;;14.90;73.62;101364.16;4967984;28;20078;-80
2024/03/14 02:30:05;;;;;;;14.07;8.40;;;;;;;14.97;72.85;101355.44;4964787;28;20035;-79
2024/03/14 02:32:30;;;;;;;12.95;7.97;;;;;;;14.99;72.54;101359.84;4966096;28;20481;-80
2024/03/14 02:34:56;;;;;;;13.50;8.10;;;;;;;14.91;72.92;101348.44;4962457;28;20126;-80
2024/03/14 02:37:24;;;;;;;11.23;7.85;;;;;;;15.03;72.57;101353.72;4965566;28;20381;-82
2024/03/14 02:39:49;;;;;;;15.02;8.52;;;;;;;14.87;73.15;101351.94;4965009;28;20039;-81
2024/03/14 02:42:17;;;;;;;13.25;8.25;;;;;;;14.96;72.55;101351.06;4966117;28;20063;-80
2024/03/14 02:44:47;;;;;;;12.32;8.35;;;;;;;14.96;72.15;101349.31;4963443;28;20039;-81
2024/03/14 02:47:13;;;;;;;15.00;8.43;;;;;;;14.84;72.90;101338.78;4966140;28;20090;-80
2024/03/14 02:49:44;;;;;;;12.38;8.23;;;;;;;14.71;73.88;101336.97;4965589;29;20125;-79
2024/03/14 02:52:16;;;;;;;19.00;8.85;;;;;;;14.74;73.34;101341.38;4966243;28;20106;-79
2024/03/14 02:54:44;;;;;;;13.40;8.70;;;;;;;14.61;73.68;101343.94;4966858;28;20043;-79
2024/03/14 02:57:11;;;;;;;15.82;8.68;;;;;;;14.76;72.97;101332.59;4966656;28;20016;-80
2024/03/14 02:59:40;;;;;;;12.10;8.05;;;;;;;14.83;72.55;101336.13;4964887;29;20560;-79
2024/03/14 03:02:11;;;;;;;15.40;8.80;;;;;;;14.60;73.55;101338.69;4965109;28;20039;-80
2024/03/14 03:04:39;;;;;;;13.90;8.10;;;;;;;14.83;72.75;101333.50;4963409;29;20063;-80
2024/03/14 03:07:09;;;;;;;11.75;8.23;;;;;;;14.81;72.51;101325.66;4963682;28;20047;-81
2024/03/14 03:09:37;;;;;;;12.70;8.40;;;;;;;14.65;73.36;101330.81;4967060;28;20159;-81
2024/03/14 03:12:03;;;;;;;15.93;8.48;;;;;;;14.72;72.90;101322.09;4976529;28;20090;-79
2024/03/14 03:14:28;;;;;;;13.60;9.10;;;;;;;14.50;73.56;101322.03;4976938;28;20082;-79
2024/03/14 03:16:57;;;;;;;16.05;8.63;;;;;;;14.61;73.08;101324.69;4975027;28;20031;-81
2024/03/14 03:19:22;;;;;;;17.88;9.38;;;;;;;14.66;73.11;101328.22;4962173;28;20474;-80
2024/03/14 03:21:48;;;;;;;12.55;8.52;;;;;;;14.68;72.81;101329.09;4958451;28;20027;-82
2024/03/14 03:24:13;;;;;;;14.68;8.65;;;;;;;14.65;72.75;101325.56;4958339;28;20043;-82
2024/03/14 03:26:40;;;;;;;14.20;8.65;;;;;;;14.61;72.55;101332.56;4957902;28;20039;-80
2024/03/14 03:29:12;;;;;;;16.00;8.88;;;;;;;14.47;72.95;101331.63;4965420;28;20035;-79
2024/03/14 03:31:40;;;;;;;15.10;9.07;;;;;;;14.51;73.18;101328.16;4970949;29;20057;-80
2024/03/14 03:34:07;;;;;;;13.40;8.50;;;;;;;14.51;72.58;101326.41;4963741;28;20035;-80
2024/03/14 03:36:32;;;;;;;14.68;8.98;;;;;;;14.43;73.26;101330.75;4958285;28;20039;-80
2024/03/14 03:38:58;;;;;;;13.57;8.65;;;;;;;14.43;73.19;101333.38;4956672;28;20512;-81
2024/03/14 03:41:23;;;;;;;13.98;9.05;;;;;;;14.40;73.11;101332.44;4955143;29;20039;-80
2024/03/14 03:43:49;;;;;;;13.63;9.30;;;;;;;14.45;72.79;101333.38;4956097;28;20032;-80
2024/03/14 03:46:18;;;;;;;15.93;9.32;;;;;;;14.36;72.63;101334.16;4959090;28;20039;-81
2024/03/14 03:48:43;;;;;;;16.40;9.50;;;;;;;14.24;73.35;101326.22;4957694;28;20085;-81
2024/03/14 03:51:13;;;;;;;15.75;9.38;;;;;;;14.28;73.17;101330.59;4957423;28;20027;-81
2024/03/14 03:53:38;;;;;;;18.02;9.52;;;;;;;14.28;72.77;101312.25;4958012;28;20035;-82
2024/03/14 03:56:13;;;;;;;12.73;8.65;;;;;;;14.24;72.67;101320.97;4954920;29;20485;-83
2024/03/14 03:58:39;;;;;;;15.15;9.68;;;;;;;14.15;73.06;101324.41;4956824;28;20035;-81
2024/03/14 04:01:11;;;;;;;17.60;10.25;;;;;;;14.01;73.38;101319.97;4955324;29;20114;-81
2024/03/14 04:03:40;;;;;;;17.65;9.77;;;;;;;14.07;73.09;101314.78;4956729;28;20130;-80
2024/03/14 04:06:10;;;;;;;16.67;10.48;;;;;;;13.92;74.03;101315.53;4955302;28;20035;-79
2024/03/14 04:08:36;;;;;;;16.38;10.75;;;;;;;13.97;73.63;101313.81;4954292;29;20120;-82
2024/03/14 04:11:07;;;;;;;18.85;11.60;;;;;;;13.95;73.93;101314.69;4958111;28;20406;-81
2024/03/14 04:13:33;;;;;;;16.23;10.43;;;;;;;13.99;73.27;101322.56;4958201;28;20051;-81
2024/03/14 04:16:00;;;;;;;17.77;10.45;;;;;;;13.96;73.52;101316.44;4954560;28;20046;-81
2024/03/14 04:18:29;;;;;;;19.88;11.18;;;;;;;13.80;74.19;101328.56;4956833;28;20039;-80
2024/03/14 04:20:54;;;;;;;16.55;10.63;;;;;;;13.90;73.58;101322.53;4955318;28;20035;-81
2024/03/14 04:23:20;;;;;;;18.52;11.43;;;;;;;13.78;74.06;101323.28;4956540;28;20031;-81
2024/03/14 04:25:46;;;;;;;19.70;12.40;;;;;;;13.75;74.09;101325.91;4959223;28;20042;-79
2024/03/14 04:28:13;;;;;;;19.20;11.05;;;;;;;13.84;73.61;101316.38;4965115;28;20031;-78
2024/03/14 04:30:41;;;;;;;20.23;12.27;;;;;;;13.65;74.52;101320.59;4959742;29;20039;-79
2024/03/14 04:33:08;;;;;;;21.65;12.25;;;;;;;13.68;73.97;101324.09;4956227;28;20556;-78
2024/03/14 04:35:35;;;;;;;19.83;12.02;;;;;;;13.63;74.35;101317.94;4956698;28;20054;-80
2024/03/14 04:38:00;;;;;;;20.27;11.73;;;;;;;13.63;74.64;101315.34;4955413;28;20069;-80
2024/03/14 04:40:29;;;;;;;19.88;12.13;;;;;;;13.71;74.17;101308.41;4953715;29;20027;-82
2024/03/14 04:42:55;;;;;;;20.67;11.98;;;;;;;13.62;74.56;101315.31;4954290;28;20042;-80
2024/03/14 04:45:24;;;;;;;19.15;12.20;;;;;;;13.57;74.30;101303.91;4954484;29;20039;-79
2024/03/14 04:47:50;;;;;;;21.60;13.15;;;;;;;13.45;75.05;101312.56;4955366;28;20192;-81
2024/03/14 04:50:18;;;;;;;24.30;13.30;;;;;;;13.51;74.88;101306.50;4955230;28;20505;-80
2024/03/14 04:52:45;;;;;;;21.85;13.20;;;;;;;13.46;75.48;101316.94;4954710;28;20071;-81
2024/03/14 04:55:13;;;;;;;20.92;12.85;;;;;;;13.55;74.88;101313.50;4955140;29;20043;-81
2024/03/14 04:57:40;;;;;;;22.40;13.85;;;;;;;13.57;74.48;101317.03;4957054;28;20589;-79
2024/03/14 05:02:50;;;;;;;23.10;13.60;;;;;;;13.39;75.15;101305.53;4959339;28;20471;-80
2024/03/14 05:05:18;;;;;;;27.02;13.68;;;;;;;13.48;74.89;101294.22;4958819;28;20081;-79
2024/03/14 05:07:44;;;;;;;24.90;14.68;;;;;;;13.32;75.78;101308.06;4957422;28;20050;-80
2024/03/14 05:10:18;;;;;;;24.73;14.82;;;;;;;13.39;75.11;101295.06;4959710;28;20027;-80
2024/03/14 05:12:44;;;;;;;27.92;15.98;;;;;;;13.24;75.98;101300.13;4957380;28;20043;-81
2024/03/14 05:15:09;;;;;;;27.33;16.85;;;;;;;13.31;76.00;101301.06;4961272;28;20065;-79
2024/03/14 05:17:36;;;;;;;28.38;15.73;;;;;;;13.42;75.49;101298.56;4962771;28;20094;-79
2024/03/14 05:20:01;;;;;;;27.58;16.15;;;;;;;13.31;75.74;101306.31;4958438;28;20049;-81
2024/03/14 05:22:31;;;;;;;28.23;16.58;;;;;;;13.38;75.34;101303.78;4958703;28;20035;-81
2024/03/14 05:24:58;;;;;;;34.60;18.13;;;;;;;13.13;77.00;101307.03;4955864;28;20074;-79
2024/03/14 05:27:24;;;;;;;31.73;17.27;;;;;;;13.38;75.68;101303.78;4957792;28;20035;-80
2024/03/14 05:29:50;;;;;;;30.40;17.50;;;;;;;13.33;76.37;101297.63;4957676;28;20098;-81
2024/03/14 05:32:27;;;;;;;31.73;18.23;;;;;;;13.33;76.51;101301.97;4958838;28;20039;-80
2024/03/14 05:34:58;;;;;;;31.48;17.90;;;;;;;13.43;75.53;101309.03;4958173;28;20180;-79
2024/03/14 05:37:24;;;;;;;31.38;17.73;;;;;;;13.23;76.35;101308.00;4957998;28;20509;-79
2024/03/14 05:39:50;;;;;;;33.22;18.48;;;;;;;13.09;76.59;101312.19;4957175;28;20138;-82
2024/03/14 05:42:18;;;;;;;34.60;18.90;;;;;;;13.21;77.09;101307.97;4957639;28;20038;-81
2024/03/14 05:44:50;;;;;;;35.10;18.50;;;;;;;13.22;76.83;101301.00;4956123;28;20519;-80
2024/03/14 05:47:19;;;;;;;38.35;19.83;;;;;;;13.22;77.00;101299.28;4961264;28;20066;-81
2024/03/14 05:49:44;;;;;;;34.55;18.42;;;;;;;13.27;76.53;101297.56;4970874;28;20232;-80
2024/03/14 05:52:12;;;;;;;35.88;18.90;;;;;;;13.28;76.77;101298.44;4968342;28;20028;-81
2024/03/14 05:54:39;;;;;;;35.13;18.83;;;;;;;13.32;76.32;101305.44;4957440;29;20055;-81
2024/03/14 05:57:04;;;;;;;36.42;18.40;;;;;;;13.29;76.80;101308.94;4958330;28;20039;-81
2024/03/14 05:59:30;;;;;;;35.20;18.50;;;;;;;13.36;76.55;101300.25;4958120;28;20042;-82
2024/03/14 06:01:56;;;;;;;32.80;18.48;;;;;;;13.34;76.88;101302.00;4957146;28;20039;-81
2024/03/14 06:04:22;;;;;;;33.33;18.77;;;;;;;13.39;76.33;101292.44;4955817;29;20036;-79
2024/03/14 06:06:48;;;;;;;36.20;18.15;;;;;;;13.31;76.58;101301.94;4957435;28;20028;-81
2024/03/14 06:09:15;;;;;;;34.88;18.90;;;;;;;13.39;76.32;101300.28;4956381;28;20051;-81
2024/03/14 06:11:43;;;;;;;38.17;19.58;;;;;;;13.37;76.51;101301.13;4958179;28;20038;-81
2024/03/14 06:14:09;;;;;;;32.80;17.95;;;;;;;13.35;76.81;101295.03;4957462;28;20051;-80
2024/03/14 06:16:34;;;;;;;35.13;18.52;;;;;;;13.21;77.03;101296.63;4958438;28;20036;-80
2024/03/14 06:19:03;;;;;;;35.50;18.13;;;;;;;13.36;77.05;101288.91;4958439;28;20042;-82
2024/03/14 06:21:29;;;;;;;37.22;19.10;;;;;;;13.24;77.93;101294.03;4956717;28;20050;-80
2024/03/14 06:23:57;;;;;;;36.47;18.73;;;;;;;13.36;77.15;101291.50;4954988;28;20476;-79
2024/03/14 06:26:23;;;;;;;32.97;18.05;;;;;;;13.46;77.32;101288.13;4954056;29;20054;-78
2024/03/14 06:28:48;;;;;;;38.30;18.23;;;;;;;13.38;78.07;101285.44;4953180;28;20036;-80
2024/03/14 06:31:17;;;;;;;33.78;19.13;;;;;;;13.55;77.91;101287.31;4955403;28;20071;-79
2024/03/14 06:33:42;;;;;;;38.63;18.77;;;;;;;13.71;78.13;101278.72;4953659;28;20050;-78
2024/03/14 06:36:08;;;;;;;33.80;18.13;;;;;;;13.99;77.29;101282.38;4951786;29;20039;-80
2024/03/14 06:38:33;;;;;;;36.00;18.33;;;;;;;14.10;77.08;101280.69;4954761;29;20062;-82
2024/03/14 06:41:01;;;;;;;30.83;17.40;;;;;;;14.50;76.04;101279.19;4954598;28;20044;-79
2024/03/14 06:43:27;;;;;;;32.45;18.23;;;;;;;14.72;75.20;101282.75;4956581;28;20385;-80
2024/03/14 06:45:58;;;;;;;28.30;16.88;;;;;;;15.05;74.00;101279.31;4956412;28;20066;-80
2024/03/14 06:48:23;;;;;;;28.83;16.55;;;;;;;15.37;73.62;101283.72;4959394;28;20130;-80
2024/03/14 06:50:49;;;;;;;25.92;15.88;;;;;;;15.71;71.63;101278.50;4959505;28;20055;-79
2024/03/14 06:53:16;;;;;;;24.70;15.45;;;;;;;15.94;69.80;101275.81;4960003;28;20046;-81
2024/03/14 06:55:42;;;;;;;21.52;14.00;;;;;;;16.30;68.08;101274.81;4957758;28;20039;-81
2024/03/14 06:58:11;;;;;;;21.38;13.60;;;;;;;16.65;66.37;101280.84;4964990;28;20490;-78
2024/03/14 07:00:40;;;;;;;21.25;13.65;;;;;;;16.69;64.89;101284.34;4956958;28;20081;-79
2024/03/14 07:03:07;;;;;;;21.08;13.82;;;;;;;17.14;64.06;101277.94;4959373;28;20042;-80
2024/03/14 07:05:32;;;;;;;19.27;12.70;;;;;;;17.21;61.59;101276.97;4969347;28;20047;-80
2024/03/14 07:07:58;;;;;;;19.25;12.73;;;;;;;17.15;62.69;101279.66;4959157;28;20043;-79
2024/03/14 07:10:24;;;;;;;21.63;13.40;;;;;;;16.74;63.43;101275.53;4957276;28;20038;-79
2024/03/14 07:12:49;;;;;;;20.38;12.90;;;;;;;16.77;63.69;101274.66;4956791;28;20040;-80
2024/03/14 07:15:22;;;;;;;22.00;13.27;;;;;;;16.70;64.55;101273.81;4956383;28;20070;-80
2024/03/14 07:17:47;;;;;;;22.55;13.57;;;;;;;17.11;63.40;101281.47;4954224;28;20047;-80
2024/03/14 07:20:16;;;;;;;18.73;12.40;;;;;;;17.30;63.05;101271.66;4953664;28;20035;-80
2024/03/14 07:22:43;;;;;;;20.38;12.55;;;;;;;17.65;61.01;101279.28;4955460;28;20061;-78
2024/03/14 07:25:09;;;;;;;18.70;12.60;;;;;;;17.80;59.98;101280.03;4955906;29;20043;-77
2024/03/14 07:27:40;;;;;;;18.15;11.80;;;;;;;18.11;59.92;101279.72;4954381;29;20036;-79
2024/03/14 07:30:13;;;;;;;18.77;12.38;;;;;;;17.99;58.21;101278.06;4955857;29;20114;-79
2024/03/14 07:32:39;;;;;;;18.58;11.93;;;;;;;17.49;60.55;101288.19;4956302;29;20153;-79
2024/03/14 07:35:13;;;;;;;17.65;11.82;;;;;;;17.17;61.28;101283.16;4964762;28;20050;-79
2024/03/14 07:37:39;;;;;;;22.77;12.77;;;;;;;16.19;64.92;101280.13;4964821;28;20035;-80
2024/03/14 07:40:05;;;;;;;19.63;12.32;;;;;;;16.20;65.63;101279.25;4956516;28;20032;-80
2024/03/14 07:42:31;;;;;;;19.92;13.10;;;;;;;15.90;66.96;101276.72;4953764;29;20035;-80
2024/03/14 07:44:59;;;;;;;19.90;12.60;;;;;;;15.99;67.03;101279.31;4955968;28;20130;-80
2024/03/14 07:47:29;;;;;;;18.52;12.80;;;;;;;15.77;68.37;101271.47;4957864;28;20280;-79
2024/03/14 07:49:54;;;;;;;19.98;13.32;;;;;;;15.65;68.70;101265.34;4955221;28;20102;-79
2024/03/14 07:52:22;;;;;;;20.33;12.82;;;;;;;15.83;68.23;101267.94;4956672;28;20031;-81
2024/03/14 07:54:48;;;;;;;20.20;12.60;;;;;;;15.72;68.73;101272.34;4955581;28;20151;-79
2024/03/14 07:57:16;;;;;;;21.15;12.95;;;;;;;15.66;69.16;101265.34;4957912;28;20481;-80
2024/03/14 07:59:42;;;;;;;19.48;12.70;;;;;;;15.71;69.43;101278.50;4954996;28;20122;-81
2024/03/14 08:02:10;;;;;;;20.42;12.93;;;;;;;15.79;68.84;101267.09;4956129;28;20456;-81
2024/03/14 08:04:44;;;;;;;18.25;12.00;;;;;;;15.77;69.78;101278.47;4954840;28;20043;-80
2024/03/14 08:07:22;;;;;;;18.60;11.55;;;;;;;15.97;68.80;101273.19;4955145;28;20031;-81
2024/03/14 08:09:48;;;;;;;18.15;11.50;;;;;;;15.79;69.71;101274.97;4953476;28;20035;-80
2024/03/14 08:12:13;;;;;;;18.25;11.60;;;;;;;15.75;69.95;101277.59;4956832;28;20031;-81
2024/03/14 08:14:45;;;;;;;21.85;11.32;;;;;;;15.84;69.88;101277.59;4957117;28;20047;-80
2024/03/14 08:17:17;;;;;;;17.70;11.02;;;;;;;16.16;69.29;101278.38;4954654;29;20043;-79
2024/03/14 08:19:51;;;;;;;19.88;10.82;;;;;;;15.81;69.25;101272.31;4956524;28;20115;-80
2024/03/14 08:22:18;;;;;;;;;;;;;;;15.90;68.95;101274.97;4958984;29;20686;-79
2024/03/14 08:24:47;;;;;;;15.98;10.20;;;;;;;15.71;68.52;101278.50;4963369;28;19918;-80
2024/03/14 08:27:13;;;;;;;17.63;10.70;;;;;;;16.03;69.79;101274.06;4966811;28;20035;-78
2024/03/14 08:29:41;;;;;;;21.88;10.20;;;;;;;16.19;68.55;101275.75;4966737;28;20059;-80
2024/03/14 08:32:12;;;;;;;17.10;10.10;;;;;;;16.48;68.25;101278.25;4962858;28;20035;-80
2024/03/14 08:34:40;;;;;;;14.43;9.02;;;;;;;16.12;68.50;101276.66;4964175;29;20047;-81
2024/03/14 08:37:06;;;;;;;17.27;9.50;;;;;;;16.00;69.06;101271.41;4963927;28;20031;-80
2024/03/14 08:39:35;;;;;;;16.30;9.65;;;;;;;16.38;68.12;101268.66;4969036;28;20039;-81
2024/03/14 08:42:04;;;;;;;14.88;9.52;;;;;;;16.64;67.19;101273.84;4968703;28;20057;-81
2024/03/14 08:44:30;;;;;;;16.10;9.20;;;;;;;16.27;68.69;101273.09;4967537;29;20038;-81
2024/03/14 08:46:55;;;;;;;18.45;9.95;;;;;;;16.25;68.34;101261.69;4968959;28;20047;-81
2024/03/14 08:49:22;;;;;;;12.95;8.82;;;;;;;16.51;67.73;101267.72;4961753;28;20047;-81
2024/03/14 08:51:49;;;;;;;14.10;8.48;;;;;;;16.92;67.16;101272.81;4960704;28;20055;-81
2024/03/14 08:56:52;;;;;;;;;;;;;;;16.75;66.04;101269.41;4959822;28;20045;-80
2024/03/14 08:59:20;;;;;;;13.10;8.60;;;;;;;16.86;67.28;101269.31;4959365;28;19961;-81
2024/03/14 09:01:45;;;;;;;13.52;8.20;;;;;;;17.10;66.29;101269.16;4958818;28;20412;-81
2024/03/14 09:04:12;;;;;;;13.75;8.30;;;;;;;17.23;65.71;101260.28;4959870;28;20027;-82
2024/03/14 09:06:42;;;;;;;13.25;8.02;;;;;;;17.40;65.68;101257.50;4959352;29;20396;-79
2024/03/14 09:09:08;;;;;;;11.27;7.93;;;;;;;17.26;65.65;101256.78;4964624;29;20400;-84
2024/03/14 09:11:34;;;;;;;11.65;8.32;;;;;;;17.22;65.06;101249.75;4960077;29;20118;-80
2024/03/14 09:14:17;;;;;;;12.57;8.00;;;;;;;17.24;64.98;101243.59;4959269;28;20142;-82
2024/03/14 09:16:44;;;;;;;12.43;8.07;;;;;;;17.52;64.64;101249.50;4960046;28;20043;-81
2024/03/14 09:19:11;;;;;;;10.57;7.43;;;;;;;17.70;64.42;101259.91;4959110;29;20035;-82
2024/03/14 09:21:40;;;;;;;12.50;7.20;;;;;;;17.02;64.67;101258.66;4966967;28;20094;-79
2024/03/14 09:24:11;;;;;;;11.15;6.90;;;;;;;17.55;64.42;101254.75;4970694;28;20109;-78
2024/03/14 09:26:42;;;;;;;11.63;7.07;;;;;;;17.93;62.95;101243.00;4962516;29;20046;-79
2024/03/14 09:29:12;;;;;;;10.73;6.70;;;;;;;18.14;62.41;101240.97;4957722;28;20051;-79
2024/03/14 09:31:42;;;;;;;9.75;6.68;;;;;;;18.00;63.25;101240.25;4957855;28;20086;-80
2024/03/14 09:34:09;;;;;;;9.30;6.22;;;;;;;18.10;61.87;101243.66;4956744;28;20035;-80
2024/03/14 09:36:34;;;;;;;11.23;6.78;;;;;;;18.10;62.21;101244.53;4956332;29;20087;-80
2024/03/14 09:39:00;;;;;;;10.90;6.68;;;;;;;18.09;62.61;101234.00;4957969;28;20424;-80
2024/03/14 09:41:25;;;;;;;10.73;6.63;;;;;;;18.29;62.06;101228.47;4956831;29;20235;-82
2024/03/14 09:43:51;;;;;;;10.75;6.40;;;;;;;18.37;62.13;101232.75;4956026;28;20086;-80
2024/03/14 09:46:21;;;;;;;10.40;6.85;;;;;;;18.38;61.85;101223.06;4957947;28;20035;-79
2024/03/14 09:48:47;;;;;;;9.68;6.30;;;;;;;17.99;62.83;101225.28;4957035;28;20401;-81
2024/03/14 09:51:16;;;;;;;7.95;5.85;;;;;;;18.35;61.86;101229.28;4958196;28;20027;-80
2024/03/14 09:53:45;;;;;;;11.05;5.97;;;;;;;18.51;61.22;101225.53;4959594;28;20047;-81
2024/03/14 09:56:10;;;;;;;9.05;5.85;;;;;;;18.54;60.79;101227.28;4959966;28;20031;-86
2024/03/14 09:58:37;;;;;;;8.35;5.90;;;;;;;18.13;61.60;101240.97;4959093;29;20050;-80
2024/03/14 10:01:11;;;;;;;8.45;5.70;;;;;;;18.51;61.10;101230.81;4959571;29;20444;-81
2024/03/14 10:03:40;;;;;;;8.68;5.95;;;;;;;18.18;61.03;101236.50;4963037;28;20055;-81
2024/03/14 10:06:20;;;;;;;7.80;5.13;;;;;;;18.37;61.08;101230.13;4960288;28;20090;-81
2024/03/14 10:08:50;;;;;;;7.75;5.20;;;;;;;18.59;59.28;101231.63;4960036;28;20087;-80
2024/03/14 10:11:18;;;;;;;7.47;4.78;;;;;;;18.15;61.39;101226.00;4964821;28;20058;-81
2024/03/14 10:13:47;;;;;;;6.28;4.50;;;;;;;18.42;60.07;101225.63;4962786;28;20086;-81
2024/03/14 10:16:17;;;;;;;6.80;4.60;;;;;;;18.70;59.74;101217.38;4958892;28;20043;-80
2024/03/14 10:18:43;;;;;;;8.15;4.60;;;;;;;18.77;59.74;101224.34;4956429;28;20724;-80
2024/03/14 10:21:08;;;;;;;7.85;4.25;;;;;;;19.04;59.13;101226.53;4957578;28;20031;-79
2024/03/14 10:23:35;;;;;;;8.70;4.40;;;;;;;19.03;58.44;101224.78;4955369;29;20438;-79
2024/03/14 10:26:01;;;;;;;7.05;4.43;;;;;;;19.01;58.05;101227.47;4956913;28;20043;-78
2024/03/14 10:28:33;;;;;;;7.82;4.15;;;;;;;19.23;58.08;101222.72;4963741;29;20087;-80
2024/03/14 10:31:02;;;;;;;8.27;4.88;;;;;;;18.43;59.33;101219.47;4951786;28;20485;-81
2024/03/14 10:33:28;;;;;;;6.68;4.20;;;;;;;18.68;58.71;101227.97;4956006;28;20453;-78
2024/03/14 10:36:05;;;;;;;7.03;3.97;;;;;;;18.95;58.30;101221.41;4955366;28;20087;-80
2024/03/14 10:38:36;;;;;;;6.60;4.05;;;;;;;18.60;57.96;101220.16;4956462;28;20165;-80
2024/03/14 10:41:05;;;;;;;6.47;3.92;;;;;;;18.91;57.46;101220.56;4958027;28;20490;-79
2024/03/14 10:43:37;;;;;;;5.57;3.55;;;;;;;19.50;56.23;101216.13;4957179;28;20392;-81
2024/03/14 10:46:08;;;;;;;6.93;4.15;;;;;;;19.23;56.32;101225.34;4956097;28;20039;-80
2024/03/14 10:48:38;;;;;;;8.25;3.78;;;;;;;19.14;56.78;101220.22;4955358;28;20070;-79
2024/03/14 10:51:06;;;;;;;7.43;3.78;;;;;;;19.02;56.20;101216.03;4955882;28;20042;-79
2024/03/14 10:53:33;;;;;;;6.28;3.78;;;;;;;19.18;56.08;101215.75;4954154;28;20067;-80
2024/03/14 10:56:03;;;;;;;5.90;3.80;;;;;;;18.73;57.26;101214.69;4958069;28;20035;-79
2024/03/14 10:58:32;;;;;;;6.80;3.80;;;;;;;18.99;56.92;101216.06;4957829;28;20078;-79
2024/03/14 11:00:59;;;;;;;6.30;3.65;;;;;;;18.93;57.03;101210.88;4956463;28;20382;-79
2024/03/14 11:03:27;;;;;;;7.03;3.17;;;;;;;19.40;55.65;101206.56;4955162;28;20035;-80
2024/03/14 11:05:58;;;;;;;5.88;3.53;;;;;;;19.48;55.02;101204.69;4955218;29;20051;-79
2024/03/14 11:08:26;;;;;;;6.85;3.90;;;;;;;19.31;55.49;101206.72;4958125;28;20042;-83
2024/03/14 11:10:56;;;;;;;6.15;3.78;;;;;;;19.14;56.76;101206.13;4957272;29;20562;-80
2024/03/14 11:13:30;;;;;;;11.73;3.70;;;;;;;19.47;56.11;101192.34;4959137;28;20039;-82
2024/03/14 11:15:59;;;;;;;7.72;3.75;;;;;;;19.50;55.66;101196.72;4963626;28;20043;-80
2024/03/14 11:18:37;;;;;;;7.43;4.35;;;;;;;19.67;55.41;101200.81;4958379;28;20039;-79
2024/03/14 11:21:12;;;;;;;8.55;3.70;;;;;;;19.84;54.08;101203.13;4955490;29;20061;-81
2024/03/14 11:23:38;;;;;;;6.35;3.75;;;;;;;19.51;54.32;101193.19;4959345;28;20039;-78